Time,TemperatureF,DewpointF,PressureIn,WindDirection,WindDirectionDegrees,WindSpeedMPH,WindSpeedGustMPH,Humidity,HourlyPrecipIn,Conditions,Clouds,dailyrainin,SoftwareType,DateUTC
2013-10-30 00:03:00,30.9,28.0,29.82,NE,44,1.0,2.0,89,0.00,CLR,CLR,0.00,WeatherDisplay:10.34,2013-10-30 06:03:00,
2013-10-30 00:08:00,30.9,28.0,29.82,NE,42,2.0,5.0,89,0.00,CLR,CLR,0.00,WeatherDisplay:10.34,2013-10-30 06:08:00,
2013-10-30 00:13:00,30.8,28.2,29.82,NE,53,1.0,2.0,90,0.00,CLR,CLR,0.00,WeatherDisplay:10.34,2013-10-30 06:13:00,
2013-10-30 00:18:00,30.9,28.3,29.82,NE,48,1.0,1.0,90,0.00,CLR,CLR,0.00,WeatherDisplay:10.34,2013-10-30 06:18:00,
2013-10-30 00:23:00,30.9,28.3,29.80,NE,44,0.0,0.0,90,0.00,CLR,CLR,0.00,WeatherDisplay:10.34,2013-10-30 06:23:00,
2013-10-30 00:28:00,30.9,28.3,29.80,NE,44,0.0,1.0,90,0.00,CLR,CLR,0.00,WeatherDisplay:10.34,2013-10-30 06:28:00,
2013-10-30 00:33:00,31.0,28.4,29.80,NE,51,3.0,3.0,90,0.00,CLR,CLR,0.00,WeatherDisplay:10.34,2013-10-30 06:33:00,
2013-10-30 00:38:00,31.0,28.4,29.80,ENE,65,1.0,2.0,90,0.00,CLR,CLR,0.00,WeatherDisplay:10.34,2013-10-30 06:38:00,
2013-10-30 00:43:00,31.0,28.4,29.79,ENE,65,1.0,2.0,90,0.00,CLR,CLR,0.00,WeatherDisplay:10.34,2013-10-30 06:43:00,
2013-10-30 00:48:00,31.0,28.4,29.79,ENE,64,1.0,1.0,90,0.00,CLR,CLR,0.00,WeatherDisplay:10.34,2013-10-30 06:48:00,
2013-10-30 00:53:00,31.1,28.5,29.79,NE,37,0.0,1.0,90,0.00,CLR,CLR,0.00,WeatherDisplay:10.34,2013-10-30 06:53:00,
2013-10-30 00:58:00,31.1,28.5,29.79,NE,37,0.0,0.0,90,0.00,CLR,CLR,0.00,WeatherDisplay:10.34,2013-10-30 06:58:00,
2013-10-30 01:03:00,31.1,28.5,29.79,NE,37,2.0,2.0,90,0.00,,,0.00,WeatherDisplay:10.34,2013-10-30 07:03:00,
2013-10-30 01:08:00,31.1,28.8,29.79,East,85,1.0,2.0,91,0.00,,,0.00,WeatherDisplay:10.34,2013-10-30 07:08:00,
2013-10-30 01:13:00,31.2,28.9,29.79,ENE,78,1.0,2.0,91,0.00,,,0.00,WeatherDisplay:10.34,2013-10-30 07:13:00,
2013-10-30 01:18:00,31.2,28.9,29.79,East,86,1.0,1.0,91,0.00,,,0.00,WeatherDisplay:10.34,2013-10-30 07:18:00,
2013-10-30 01:23:00,31.3,29.0,29.79,ENE,63,5.0,7.0,91,0.00,,,0.00,WeatherDisplay:10.34,2013-10-30 07:23:00,
2013-10-30 01:28:00,31.3,29.0,29.79,ENE,76,2.0,2.0,91,0.00,,,0.00,WeatherDisplay:10.34,2013-10-30 07:28:00,
2013-10-30 01:33:00,31.3,29.0,29.79,NE,54,2.0,3.0,91,0.00,,,0.00,WeatherDisplay:10.34,2013-10-30 07:33:00,
2013-10-30 01:38:00,31.3,29.0,29.79,NE,40,4.0,4.0,91,0.00,,,0.00,WeatherDisplay:10.34,2013-10-30 07:38:00,
2013-10-30 01:43:00,31.3,29.0,29.79,East,101,3.0,3.0,91,0.00,,,0.00,WeatherDisplay:10.34,2013-10-30 07:43:00,
2013-10-30 01:48:00,31.2,28.9,29.79,East,100,6.0,8.0,91,0.00,,,0.00,WeatherDisplay:10.34,2013-10-30 07:48:00,
2013-10-30 01:53:00,31.2,28.9,29.79,ESE,114,3.0,3.0,91,0.00,,,0.00,WeatherDisplay:10.34,2013-10-30 07:53:00,
2013-10-30 01:58:00,31.3,29.0,29.79,East,99,5.0,5.0,91,0.00,,,0.00,WeatherDisplay:10.34,2013-10-30 07:58:00,
2013-10-30 02:03:00,31.3,29.2,29.79,ESE,116,3.0,3.0,92,0.00,,,0.00,WeatherDisplay:10.34,2013-10-30 08:03:00,
2013-10-30 02:08:00,31.4,29.3,29.79,ESE,103,5.0,5.0,92,0.00,,,0.00,WeatherDisplay:10.34,2013-10-30 08:08:00,
2013-10-30 02:13:00,31.4,29.3,29.79,ESE,118,3.0,3.0,92,0.00,,,0.00,WeatherDisplay:10.34,2013-10-30 08:13:00,
2013-10-30 02:18:00,31.4,29.3,29.79,ESE,119,3.0,3.0,92,0.00,,,0.00,WeatherDisplay:10.34,2013-10-30 08:18:00,
2013-10-30 02:23:00,31.4,29.3,29.79,ESE,111,5.0,5.0,92,0.00,,,0.00,WeatherDisplay:10.34,2013-10-30 08:23:00,
2013-10-30 02:28:00,31.5,29.4,29.79,ESE,105,4.0,7.0,92,0.00,,,0.00,WeatherDisplay:10.34,2013-10-30 08:28:00,
2013-10-30 02:33:00,31.5,29.4,29.79,ESE,115,2.0,2.0,92,0.00,,,0.00,WeatherDisplay:10.34,2013-10-30 08:33:00,
2013-10-30 02:38:00,31.5,29.4,29.79,ESE,117,4.0,7.0,92,0.00,,,0.00,WeatherDisplay:10.34,2013-10-30 08:38:00,
2013-10-30 02:43:00,31.5,29.4,29.79,ESE,103,4.0,5.0,92,0.00,,,0.00,WeatherDisplay:10.34,2013-10-30 08:43:00,
2013-10-30 02:48:00,31.5,29.4,29.78,ESE,121,5.0,5.0,92,0.00,,,0.00,WeatherDisplay:10.34,2013-10-30 08:48:00,
2013-10-30 02:53:00,31.5,29.4,29.78,ESE,118,6.0,7.0,92,0.00,,,0.00,WeatherDisplay:10.34,2013-10-30 08:53:00,
2013-10-30 02:58:00,31.5,29.4,29.78,East,88,5.0,7.0,92,0.00,,,0.00,WeatherDisplay:10.34,2013-10-30 08:58:00,
2013-10-30 03:03:00,31.5,29.4,29.78,SE,133,3.0,3.0,92,0.00,CLR,CLR,0.00,WeatherDisplay:10.34,2013-10-30 09:03:00,
2013-10-30 03:08:00,31.6,29.8,29.78,ESE,119,5.0,5.0,93,0.00,CLR,CLR,0.00,WeatherDisplay:10.34,2013-10-30 09:08:00,
2013-10-30 03:13:00,31.6,29.8,29.79,ESE,107,7.0,8.0,93,0.00,CLR,CLR,0.00,WeatherDisplay:10.34,2013-10-30 09:13:00,
2013-10-30 03:18:00,31.6,29.8,29.79,East,101,6.0,7.0,93,0.00,CLR,CLR,0.00,WeatherDisplay:10.34,2013-10-30 09:18:00,
2013-10-30 03:23:00,31.5,29.7,29.79,ESE,109,7.0,8.0,93,0.00,CLR,CLR,0.00,WeatherDisplay:10.34,2013-10-30 09:23:00,
2013-10-30 03:28:00,31.5,29.7,29.79,East,87,1.0,2.0,93,0.00,CLR,CLR,0.00,WeatherDisplay:10.34,2013-10-30 09:28:00,
2013-10-30 03:33:00,31.5,29.7,29.78,East,88,4.0,7.0,93,0.00,CLR,CLR,0.00,WeatherDisplay:10.34,2013-10-30 09:33:00,
2013-10-30 03:38:00,31.5,29.7,29.78,ENE,68,4.0,9.0,93,0.00,CLR,CLR,0.00,WeatherDisplay:10.34,2013-10-30 09:38:00,
2013-10-30 03:43:00,31.5,29.7,29.78,East,94,3.0,3.0,93,0.00,CLR,CLR,0.00,WeatherDisplay:10.34,2013-10-30 09:43:00,
2013-10-30 03:48:00,31.5,29.7,29.78,East,82,1.0,2.0,93,0.00,CLR,CLR,0.00,WeatherDisplay:10.34,2013-10-30 09:48:00,
2013-10-30 03:53:00,31.4,29.6,29.78,East,92,1.0,2.0,93,0.00,CLR,CLR,0.00,WeatherDisplay:10.34,2013-10-30 09:53:00,
2013-10-30 03:58:00,31.4,29.6,29.78,East,89,1.0,2.0,93,0.00,CLR,CLR,0.00,WeatherDisplay:10.34,2013-10-30 09:58:00,
2013-10-30 04:03:00,31.4,29.6,29.77,East,91,0.0,0.0,93,0.00,CLR,CLR,0.00,WeatherDisplay:10.34,2013-10-30 10:03:00,
2013-10-30 04:08:00,31.4,29.6,29.77,NE,51,0.0,0.0,93,0.00,CLR,CLR,0.00,WeatherDisplay:10.34,2013-10-30 10:08:00,
2013-10-30 04:13:00,31.4,29.6,29.77,ENE,69,0.0,0.0,93,0.00,CLR,CLR,0.00,WeatherDisplay:10.34,2013-10-30 10:13:00,
2013-10-30 04:18:00,31.3,29.5,29.77,NE,48,1.0,2.0,93,0.00,CLR,CLR,0.00,WeatherDisplay:10.34,2013-10-30 10:18:00,
2013-10-30 04:23:00,31.3,29.5,29.77,ENE,59,1.0,1.0,93,0.00,CLR,CLR,0.00,WeatherDisplay:10.34,2013-10-30 10:23:00,
2013-10-30 04:28:00,31.3,29.5,29.77,ENE,60,3.0,3.0,93,0.00,CLR,CLR,0.00,WeatherDisplay:10.34,2013-10-30 10:28:00,
2013-10-30 04:33:00,31.3,29.5,29.77,NE,49,1.0,8.0,93,0.00,CLR,CLR,0.00,WeatherDisplay:10.34,2013-10-30 10:33:00,
2013-10-30 04:38:00,31.3,29.5,29.77,ENE,69,2.0,3.0,93,0.00,CLR,CLR,0.00,WeatherDisplay:10.34,2013-10-30 10:38:00,
2013-10-30 04:43:00,31.3,29.5,29.77,ENE,78,6.0,7.0,93,0.00,CLR,CLR,0.00,WeatherDisplay:10.34,2013-10-30 10:43:00,
2013-10-30 04:48:00,31.2,29.4,29.77,NE,53,4.0,8.0,93,0.00,CLR,CLR,0.00,WeatherDisplay:10.34,2013-10-30 10:48:00,
2013-10-30 04:53:00,31.2,29.4,29.77,East,86,2.0,5.0,93,0.00,CLR,CLR,0.00,WeatherDisplay:10.34,2013-10-30 10:53:00,
2013-10-30 04:58:00,31.1,29.3,29.77,NNE,22,1.0,2.0,93,0.00,CLR,CLR,0.00,WeatherDisplay:10.34,2013-10-30 10:58:00,
2013-10-30 05:03:00,31.2,29.4,29.77,ENE,64,6.0,9.0,93,0.00,CLR,CLR,0.00,WeatherDisplay:10.34,2013-10-30 11:03:00,
2013-10-30 05:08:00,31.1,29.3,29.77,ENE,78,5.0,9.0,93,0.00,CLR,CLR,0.00,WeatherDisplay:10.34,2013-10-30 11:08:00,
2013-10-30 05:13:00,31.1,29.3,29.77,ENE,74,2.0,3.0,93,0.00,CLR,CLR,0.00,WeatherDisplay:10.34,2013-10-30 11:13:00,
2013-10-30 05:18:00,31.1,29.3,29.77,East,85,1.0,2.0,93,0.00,CLR,CLR,0.00,WeatherDisplay:10.34,2013-10-30 11:18:00,
2013-10-30 05:23:00,31.0,29.2,29.77,NE,47,1.0,3.0,93,0.00,CLR,CLR,0.00,WeatherDisplay:10.34,2013-10-30 11:23:00,
2013-10-30 05:28:00,31.0,29.2,29.77,ENE,59,2.0,3.0,93,0.00,CLR,CLR,0.00,WeatherDisplay:10.34,2013-10-30 11:28:00,
2013-10-30 05:33:00,31.0,29.2,29.77,NE,41,2.0,2.0,93,0.00,CLR,CLR,0.00,WeatherDisplay:10.34,2013-10-30 11:33:00,
2013-10-30 05:38:00,31.0,29.2,29.77,ENE,65,1.0,3.0,93,0.00,CLR,CLR,0.00,WeatherDisplay:10.34,2013-10-30 11:38:00,
2013-10-30 05:43:00,30.9,29.1,29.77,NNE,27,1.0,3.0,93,0.00,CLR,CLR,0.00,WeatherDisplay:10.34,2013-10-30 11:43:00,
2013-10-30 05:48:00,30.8,29.0,29.77,North,360,1.0,3.0,93,0.00,CLR,CLR,0.00,WeatherDisplay:10.34,2013-10-30 11:48:00,
2013-10-30 05:53:00,30.8,29.0,29.77,NNE,20,1.0,2.0,93,0.00,CLR,CLR,0.00,WeatherDisplay:10.34,2013-10-30 11:53:00,
2013-10-30 05:58:00,30.7,28.9,29.77,NE,36,3.0,5.0,93,0.00,CLR,CLR,0.00,WeatherDisplay:10.34,2013-10-30 11:58:00,
2013-10-30 06:03:00,30.7,29.2,29.77,NE,40,0.0,1.0,94,0.00,CLR,CLR,0.00,WeatherDisplay:10.34,2013-10-30 12:03:00,
2013-10-30 06:08:00,30.7,28.9,29.77,ENE,59,0.0,1.0,93,0.00,CLR,CLR,0.00,WeatherDisplay:10.34,2013-10-30 12:08:00,
2013-10-30 06:13:00,30.7,28.9,29.76,ENE,63,2.0,3.0,93,0.00,CLR,CLR,0.00,WeatherDisplay:10.34,2013-10-30 12:13:00,
2013-10-30 06:18:00,30.7,28.9,29.76,NE,46,1.0,2.0,93,0.00,CLR,CLR,0.00,WeatherDisplay:10.34,2013-10-30 12:18:00,
2013-10-30 06:23:00,30.7,28.9,29.76,North,355,1.0,2.0,93,0.00,CLR,CLR,0.00,WeatherDisplay:10.34,2013-10-30 12:23:00,
2013-10-30 06:28:00,30.6,28.8,29.76,North,349,0.0,1.0,93,0.00,CLR,CLR,0.00,WeatherDisplay:10.34,2013-10-30 12:28:00,
2013-10-30 06:33:00,30.6,29.1,29.76,NNE,13,0.0,1.0,94,0.00,CLR,CLR,0.00,WeatherDisplay:10.34,2013-10-30 12:33:00,
2013-10-30 06:38:00,30.6,29.1,29.76,NE,51,1.0,2.0,94,0.00,CLR,CLR,0.00,WeatherDisplay:10.34,2013-10-30 12:38:00,
2013-10-30 06:43:00,30.5,29.0,29.76,NE,46,1.0,1.0,94,0.00,CLR,CLR,0.00,WeatherDisplay:10.34,2013-10-30 12:43:00,
2013-10-30 06:48:00,30.5,29.0,29.75,NNE,25,0.0,0.0,94,0.00,CLR,CLR,0.00,WeatherDisplay:10.34,2013-10-30 12:48:00,
2013-10-30 06:53:00,30.5,29.0,29.75,NNE,26,0.0,0.0,94,0.00,CLR,CLR,0.00,WeatherDisplay:10.34,2013-10-30 12:53:00,
2013-10-30 06:58:00,30.5,29.0,29.75,NNE,25,0.0,0.0,94,0.00,CLR,CLR,0.00,WeatherDisplay:10.34,2013-10-30 12:58:00,
2013-10-30 07:03:00,30.5,29.0,29.75,NNE,26,0.0,0.0,94,0.00,OVC,OVC,0.00,WeatherDisplay:10.34,2013-10-30 13:03:00,
2013-10-30 07:08:00,30.5,29.0,29.75,NNE,26,0.0,0.0,94,0.00,OVC,OVC,0.00,WeatherDisplay:10.34,2013-10-30 13:08:00,
2013-10-30 07:13:00,30.5,29.0,29.76,NNE,26,0.0,0.0,94,0.00,OVC,OVC,0.00,WeatherDisplay:10.34,2013-10-30 13:13:00,
2013-10-30 07:18:00,30.6,29.1,29.76,NE,55,2.0,3.0,94,0.00,OVC,OVC,0.00,WeatherDisplay:10.34,2013-10-30 13:18:00,
2013-10-30 07:23:00,30.6,29.1,29.76,ENE,61,0.0,1.0,94,0.00,OVC,OVC,0.00,WeatherDisplay:10.34,2013-10-30 13:23:00,
2013-10-30 07:28:00,30.7,29.2,29.76,NE,54,0.0,0.0,94,0.00,OVC,OVC,0.00,WeatherDisplay:10.34,2013-10-30 13:28:00,
2013-10-30 07:33:00,30.7,29.2,29.76,NE,54,0.0,0.0,94,0.00,OVC,OVC,0.00,WeatherDisplay:10.34,2013-10-30 13:33:00,
2013-10-30 07:38:00,30.8,29.3,29.76,NE,38,0.0,1.0,94,0.00,OVC,OVC,0.00,WeatherDisplay:10.34,2013-10-30 13:38:00,
2013-10-30 07:43:00,30.8,29.3,29.76,NE,41,0.0,0.0,94,0.00,OVC,OVC,0.00,WeatherDisplay:10.34,2013-10-30 13:43:00,
2013-10-30 07:48:00,30.8,29.3,29.76,ENE,64,1.0,1.0,94,0.00,OVC,OVC,0.00,WeatherDisplay:10.34,2013-10-30 13:48:00,
2013-10-30 07:53:00,30.9,29.4,29.76,ENE,71,1.0,2.0,94,0.00,OVC,OVC,0.00,WeatherDisplay:10.34,2013-10-30 13:53:00,
2013-10-30 07:58:00,31.0,29.5,29.76,NE,53,1.0,1.0,94,0.00,OVC,OVC,0.00,WeatherDisplay:10.34,2013-10-30 13:58:00,
2013-10-30 08:03:00,31.0,29.5,29.76,NE,54,2.0,2.0,94,0.00,OVC,OVC,0.00,WeatherDisplay:10.34,2013-10-30 14:03:00,
2013-10-30 08:08:00,31.0,29.5,29.76,ENE,72,1.0,3.0,94,0.00,OVC,OVC,0.00,WeatherDisplay:10.34,2013-10-30 14:08:00,
2013-10-30 08:13:00,31.1,29.6,29.77,East,91,8.0,9.0,94,0.00,OVC,OVC,0.00,WeatherDisplay:10.34,2013-10-30 14:13:00,
2013-10-30 08:18:00,31.1,29.6,29.77,ESE,110,6.0,9.0,94,0.00,OVC,OVC,0.00,WeatherDisplay:10.34,2013-10-30 14:18:00,
2013-10-30 08:23:00,31.1,29.6,29.77,ESE,123,9.0,9.0,94,0.00,OVC,OVC,0.00,WeatherDisplay:10.34,2013-10-30 14:23:00,
2013-10-30 08:28:00,31.1,29.6,29.77,ESE,114,3.0,5.0,94,0.00,OVC,OVC,0.00,WeatherDisplay:10.34,2013-10-30 14:28:00,
2013-10-30 08:33:00,31.1,29.6,29.77,ESE,109,10.0,10.0,94,0.00,CLR,CLR,0.00,WeatherDisplay:10.34,2013-10-30 14:33:00,
2013-10-30 08:38:00,31.2,29.7,29.77,ESE,106,0.0,1.0,94,0.00,CLR,CLR,0.00,WeatherDisplay:10.34,2013-10-30 14:38:00,
2013-10-30 08:43:00,31.2,29.7,29.77,East,92,0.0,1.0,94,0.00,CLR,CLR,0.00,WeatherDisplay:10.34,2013-10-30 14:43:00,
2013-10-30 08:48:00,31.2,29.7,29.77,East,86,2.0,2.0,94,0.00,CLR,CLR,0.00,WeatherDisplay:10.34,2013-10-30 14:48:00,
2013-10-30 08:53:00,31.2,29.7,29.77,ESE,103,2.0,3.0,94,0.00,SCT,SCT,0.00,WeatherDisplay:10.34,2013-10-30 14:53:00,
2013-10-30 08:58:00,31.1,29.6,29.77,ESE,109,0.0,0.0,94,0.00,BKN,BKN,0.00,WeatherDisplay:10.34,2013-10-30 14:58:00,
2013-10-30 09:03:00,31.0,29.5,29.77,SSE,153,3.0,3.0,94,0.00,FEW,FEW,0.00,WeatherDisplay:10.34,2013-10-30 15:03:00,
2013-10-30 09:08:00,30.7,29.2,29.77,SE,126,0.0,2.0,94,0.00,SCT,SCT,0.00,WeatherDisplay:10.34,2013-10-30 15:08:00,
2013-10-30 09:13:00,30.6,29.1,29.76,SSE,149,0.0,0.0,94,0.00,BKN,BKN,0.00,WeatherDisplay:10.34,2013-10-30 15:13:00,
2013-10-30 09:18:00,30.4,28.9,29.76,SE,146,0.0,0.0,94,0.00,SCT,SCT,0.00,WeatherDisplay:10.34,2013-10-30 15:18:00,
2013-10-30 09:23:00,30.5,29.0,29.76,SE,146,0.0,0.0,94,0.00,SCT,SCT,0.00,WeatherDisplay:10.34,2013-10-30 15:23:00,
2013-10-30 09:28:00,30.5,29.0,29.76,South,170,0.0,0.0,94,0.00,SCT,SCT,0.00,WeatherDisplay:10.34,2013-10-30 15:28:00,
2013-10-30 09:33:00,30.5,29.0,29.76,South,169,0.0,0.0,94,0.00,BKN,BKN,0.00,WeatherDisplay:10.34,2013-10-30 15:33:00,
2013-10-30 09:38:00,30.5,29.0,29.76,South,169,0.0,0.0,94,0.00,BKN,BKN,0.00,WeatherDisplay:10.34,2013-10-30 15:38:00,
2013-10-30 09:43:00,30.5,29.0,29.76,South,169,0.0,0.0,94,0.00,SCT,SCT,0.00,WeatherDisplay:10.34,2013-10-30 15:43:00,
2013-10-30 09:48:00,30.6,29.1,29.76,South,170,0.0,0.0,94,0.00,SCT,SCT,0.00,WeatherDisplay:10.34,2013-10-30 15:48:00,
2013-10-30 09:53:00,30.8,29.3,29.76,South,170,0.0,0.0,94,0.01,RA,RA,0.01,WeatherDisplay:10.34,2013-10-30 15:53:00,
2013-10-30 09:58:00,31.1,29.6,29.76,NNE,33,0.0,1.0,94,0.01,RA,RA,0.01,WeatherDisplay:10.34,2013-10-30 15:58:00,
2013-10-30 10:03:00,31.2,29.7,29.76,East,86,1.0,3.0,94,0.01,SCT,SCT,0.01,WeatherDisplay:10.34,2013-10-30 16:03:00,
2013-10-30 10:08:00,31.4,29.9,29.76,North,360,2.0,3.0,94,0.01,BKN,BKN,0.01,WeatherDisplay:10.34,2013-10-30 16:08:00,
2013-10-30 10:13:00,31.3,29.8,29.76,NNE,19,2.0,7.0,94,0.01,SCT,SCT,0.01,WeatherDisplay:10.34,2013-10-30 16:13:00,
2013-10-30 10:18:00,31.2,29.7,29.76,ENE,65,7.0,7.0,94,0.01,SCT,SCT,0.01,WeatherDisplay:10.34,2013-10-30 16:18:00,
2013-10-30 10:23:00,31.0,29.5,29.76,ENE,57,4.0,4.0,94,0.01,SCT,SCT,0.01,WeatherDisplay:10.34,2013-10-30 16:23:00,
2013-10-30 10:28:00,31.0,29.5,29.76,NE,41,3.0,3.0,94,0.01,SCT,SCT,0.01,WeatherDisplay:10.34,2013-10-30 16:28:00,
2013-10-30 10:33:00,31.1,29.6,29.76,NE,49,2.0,3.0,94,0.01,SCT,SCT,0.01,WeatherDisplay:10.34,2013-10-30 16:33:00,
2013-10-30 10:38:00,31.1,29.6,29.76,ENE,63,1.0,3.0,94,0.01,SCT,SCT,0.01,WeatherDisplay:10.34,2013-10-30 16:38:00,
2013-10-30 10:43:00,31.2,29.7,29.75,North,5,5.0,5.0,94,0.01,SCT,SCT,0.01,WeatherDisplay:10.34,2013-10-30 16:43:00,
2013-10-30 10:48:00,31.2,29.7,29.75,NE,34,7.0,7.0,94,0.01,BKN,BKN,0.01,WeatherDisplay:10.34,2013-10-30 16:48:00,
2013-10-30 10:53:00,31.4,29.9,29.76,NNE,25,2.0,3.0,94,0.00,BKN,BKN,0.01,WeatherDisplay:10.34,2013-10-30 16:53:00,
2013-10-30 10:58:00,31.6,30.1,29.76,NE,36,3.0,5.0,94,0.00,OVC,OVC,0.01,WeatherDisplay:10.34,2013-10-30 16:58:00,
2013-10-30 11:03:00,31.7,30.2,29.76,ENE,57,8.0,9.0,94,0.00,BKN,BKN,0.01,WeatherDisplay:10.34,2013-10-30 17:03:00,
2013-10-30 11:08:00,31.8,30.3,29.76,NE,48,2.0,5.0,94,0.00,BKN,BKN,0.01,WeatherDisplay:10.34,2013-10-30 17:08:00,
2013-10-30 11:13:00,32.2,30.9,29.77,NE,40,7.0,8.0,95,0.00,SCT,SCT,0.01,WeatherDisplay:10.34,2013-10-30 17:13:00,
2013-10-30 11:18:00,32.5,31.2,29.76,ENE,70,6.0,8.0,95,0.00,SCT,SCT,0.01,WeatherDisplay:10.34,2013-10-30 17:18:00,
2013-10-30 11:23:00,32.6,31.3,29.76,ENE,69,3.0,3.0,95,0.00,SCT,SCT,0.01,WeatherDisplay:10.34,2013-10-30 17:23:00,
2013-10-30 11:28:00,32.9,31.6,29.76,ENE,68,1.0,1.0,95,0.00,SCT,SCT,0.01,WeatherDisplay:10.34,2013-10-30 17:28:00,
2013-10-30 11:33:00,33.3,32.0,29.76,NE,49,4.0,4.0,95,0.00,SCT,SCT,0.01,WeatherDisplay:10.34,2013-10-30 17:33:00,
2013-10-30 11:38:00,33.7,32.4,29.76,ESE,109,3.0,3.0,95,0.00,SCT,SCT,0.01,WeatherDisplay:10.34,2013-10-30 17:38:00,
2013-10-30 11:43:00,34.2,32.9,29.76,East,95,0.0,0.0,95,0.00,SCT,SCT,0.01,WeatherDisplay:10.34,2013-10-30 17:43:00,
2013-10-30 11:48:00,34.4,33.1,29.76,ENE,61,2.0,3.0,95,0.00,SCT,SCT,0.01,WeatherDisplay:10.34,2013-10-30 17:48:00,
2013-10-30 11:53:00,34.7,33.4,29.76,NE,45,3.0,5.0,95,0.00,SCT,SCT,0.01,WeatherDisplay:10.34,2013-10-30 17:53:00,
2013-10-30 11:58:00,35.1,33.8,29.76,ENE,77,5.0,7.0,95,0.00,SCT,SCT,0.02,WeatherDisplay:10.34,2013-10-30 17:58:00,
2013-10-30 12:04:00,35.2,33.9,29.76,ENE,64,7.0,8.0,95,0.01,RA,RA,0.02,WeatherDisplay:10.34,2013-10-30 18:04:00,
2013-10-30 12:09:00,35.4,34.1,29.76,East,79,4.0,5.0,95,0.01,RA,RA,0.02,WeatherDisplay:10.34,2013-10-30 18:09:00,
2013-10-30 12:14:00,35.5,34.2,29.76,ENE,76,4.0,5.0,95,0.01,SCT,SCT,0.02,WeatherDisplay:10.34,2013-10-30 18:14:00,
2013-10-30 12:19:00,35.7,34.4,29.76,ENE,61,6.0,7.0,95,0.01,BKN,BKN,0.02,WeatherDisplay:10.34,2013-10-30 18:19:00,
2013-10-30 12:24:00,35.7,34.1,29.76,ENE,67,0.0,3.0,94,0.01,BKN,BKN,0.02,WeatherDisplay:10.34,2013-10-30 18:24:00,
2013-10-30 12:29:00,35.7,34.1,29.76,East,92,6.0,8.0,94,0.01,SCT,SCT,0.02,WeatherDisplay:10.34,2013-10-30 18:29:00,
2013-10-30 12:34:00,35.7,34.1,29.76,ENE,74,4.0,5.0,94,0.01,BKN,BKN,0.02,WeatherDisplay:10.34,2013-10-30 18:34:00,
2013-10-30 12:39:00,35.7,34.1,29.75,East,83,4.0,5.0,94,0.01,BKN,BKN,0.02,WeatherDisplay:10.34,2013-10-30 18:39:00,
2013-10-30 12:44:00,35.5,33.9,29.75,ENE,76,3.0,3.0,94,0.01,BKN,BKN,0.02,WeatherDisplay:10.34,2013-10-30 18:44:00,
2013-10-30 12:49:00,35.7,33.9,29.75,ESE,103,3.0,3.0,93,0.01,SCT,SCT,0.02,WeatherDisplay:10.34,2013-10-30 18:49:00,
2013-10-30 12:54:00,35.9,34.1,29.75,ESE,106,0.0,0.0,93,0.01,SCT,SCT,0.02,WeatherDisplay:10.34,2013-10-30 18:54:00,
2013-10-30 12:59:00,36.0,34.2,29.75,ESE,102,3.0,3.0,93,0.01,BKN,BKN,0.02,WeatherDisplay:10.34,2013-10-30 18:59:00,
2013-10-30 13:04:00,36.1,34.3,29.75,ESE,110,0.0,0.0,93,0.00,BKN,BKN,0.02,WeatherDisplay:10.34,2013-10-30 19:04:00,
2013-10-30 13:09:00,36.2,34.4,29.75,North,355,1.0,2.0,93,0.00,BKN,BKN,0.02,WeatherDisplay:10.34,2013-10-30 19:09:00,
2013-10-30 13:14:00,36.4,34.6,29.74,ENE,59,3.0,5.0,93,0.00,BKN,BKN,0.02,WeatherDisplay:10.34,2013-10-30 19:14:00,
2013-10-30 13:19:00,36.4,34.3,29.74,NE,44,2.0,7.0,92,0.00,BKN,BKN,0.02,WeatherDisplay:10.34,2013-10-30 19:19:00,
2013-10-30 13:24:00,36.5,34.4,29.74,NE,40,0.0,1.0,92,0.00,BKN,BKN,0.02,WeatherDisplay:10.34,2013-10-30 19:24:00,
2013-10-30 13:29:00,36.8,34.7,29.74,NNW,332,0.0,0.0,92,0.00,BKN,BKN,0.02,WeatherDisplay:10.34,2013-10-30 19:29:00,
2013-10-30 13:34:00,37.1,35.0,29.74,NNW,336,4.0,5.0,92,0.00,BKN,BKN,0.02,WeatherDisplay:10.34,2013-10-30 19:34:00,
2013-10-30 13:39:00,37.3,34.9,29.74,NE,38,0.0,0.0,91,0.00,BKN,BKN,0.02,WeatherDisplay:10.34,2013-10-30 19:39:00,
2013-10-30 13:44:00,37.5,35.1,29.73,NNE,28,3.0,3.0,91,0.00,OVC,OVC,0.02,WeatherDisplay:10.34,2013-10-30 19:44:00,
2013-10-30 13:49:00,37.6,35.2,29.73,East,90,1.0,1.0,91,0.00,OVC,OVC,0.02,WeatherDisplay:10.34,2013-10-30 19:49:00,
2013-10-30 13:54:00,37.8,35.4,29.73,NNE,25,1.0,1.0,91,0.00,OVC,OVC,0.02,WeatherDisplay:10.34,2013-10-30 19:54:00,
2013-10-30 13:59:00,37.9,35.5,29.73,NNW,330,1.0,2.0,91,0.00,BKN,BKN,0.02,WeatherDisplay:10.34,2013-10-30 19:59:00,
2013-10-30 14:04:00,38.0,35.3,29.73,NE,40,1.0,2.0,90,0.00,OVC,OVC,0.02,WeatherDisplay:10.34,2013-10-30 20:04:00,
2013-10-30 14:09:00,38.2,35.5,29.73,ENE,60,2.0,2.0,90,0.00,OVC,OVC,0.02,WeatherDisplay:10.34,2013-10-30 20:09:00,
2013-10-30 14:14:00,38.3,35.6,29.73,NNW,329,3.0,3.0,90,0.00,OVC,OVC,0.02,WeatherDisplay:10.34,2013-10-30 20:14:00,
2013-10-30 14:19:00,38.3,35.6,29.73,NW,314,0.0,0.0,90,0.00,OVC,OVC,0.02,WeatherDisplay:10.34,2013-10-30 20:19:00,
2013-10-30 14:24:00,38.4,35.7,29.73,NW,314,0.0,0.0,90,0.00,OVC,OVC,0.02,WeatherDisplay:10.34,2013-10-30 20:24:00,
2013-10-30 14:29:00,38.5,35.5,29.73,NW,315,3.0,3.0,89,0.00,OVC,OVC,0.02,WeatherDisplay:10.34,2013-10-30 20:29:00,
2013-10-30 14:34:00,38.6,35.6,29.73,NW,315,1.0,2.0,89,0.00,OVC,OVC,0.02,WeatherDisplay:10.34,2013-10-30 20:34:00,
2013-10-30 14:39:00,38.6,35.6,29.74,NE,46,0.0,0.0,89,0.00,OVC,OVC,0.02,WeatherDisplay:10.34,2013-10-30 20:39:00,
2013-10-30 14:44:00,38.7,35.7,29.73,NW,326,1.0,1.0,89,0.00,OVC,OVC,0.02,WeatherDisplay:10.34,2013-10-30 20:44:00,
2013-10-30 14:49:00,38.6,35.4,29.73,NW,325,3.0,5.0,88,0.00,OVC,OVC,0.02,WeatherDisplay:10.34,2013-10-30 20:49:00,
2013-10-30 14:54:00,38.6,35.4,29.73,NNW,335,0.0,0.0,88,0.00,OVC,OVC,0.02,WeatherDisplay:10.34,2013-10-30 20:54:00,
2013-10-30 14:59:00,38.7,35.5,29.73,NNW,346,4.0,4.0,88,0.00,OVC,OVC,0.02,WeatherDisplay:10.34,2013-10-30 20:59:00,
2013-10-30 15:04:00,38.7,35.5,29.73,NNE,32,2.0,2.0,88,0.00,OVC,OVC,0.02,WeatherDisplay:10.34,2013-10-30 21:04:00,
2013-10-30 15:09:00,38.8,35.6,29.73,WNW,296,1.0,1.0,88,0.00,OVC,OVC,0.02,WeatherDisplay:10.34,2013-10-30 21:09:00,
2013-10-30 15:14:00,38.9,35.6,29.74,WNW,295,0.0,0.0,88,0.00,OVC,OVC,0.02,WeatherDisplay:10.34,2013-10-30 21:14:00,
2013-10-30 15:19:00,38.9,35.6,29.74,WNW,296,0.0,1.0,88,0.00,OVC,OVC,0.02,WeatherDisplay:10.34,2013-10-30 21:19:00,
2013-10-30 15:24:00,39.0,35.7,29.74,WNW,296,1.0,1.0,88,0.00,OVC,OVC,0.02,WeatherDisplay:10.34,2013-10-30 21:24:00,
2013-10-30 15:29:00,38.9,35.6,29.74,WNW,296,0.0,0.0,88,0.00,OVC,OVC,0.02,WeatherDisplay:10.34,2013-10-30 21:29:00,
2013-10-30 15:34:00,38.9,35.6,29.74,NE,36,0.0,1.0,88,0.00,OVC,OVC,0.02,WeatherDisplay:10.34,2013-10-30 21:34:00,
2013-10-30 15:39:00,39.0,35.7,29.74,North,355,2.0,2.0,88,0.00,OVC,OVC,0.02,WeatherDisplay:10.34,2013-10-30 21:39:00,
2013-10-30 15:44:00,38.9,35.6,29.74,WNW,296,1.0,2.0,88,0.00,OVC,OVC,0.02,WeatherDisplay:10.34,2013-10-30 21:44:00,
2013-10-30 15:49:00,39.0,35.5,29.74,WNW,303,0.0,0.0,87,0.00,OVC,OVC,0.02,WeatherDisplay:10.34,2013-10-30 21:49:00,
2013-10-30 15:54:00,38.8,35.3,29.74,North,360,3.0,3.0,87,0.00,OVC,OVC,0.02,WeatherDisplay:10.34,2013-10-30 21:54:00,
2013-10-30 15:59:00,38.9,35.4,29.74,North,349,0.0,3.0,87,0.00,OVC,OVC,0.02,WeatherDisplay:10.34,2013-10-30 21:59:00,
2013-10-30 16:04:00,38.9,35.4,29.74,NNW,329,0.0,0.0,87,0.00,OVC,OVC,0.02,WeatherDisplay:10.34,2013-10-30 22:04:00,
2013-10-30 16:09:00,38.9,35.4,29.74,NNW,329,0.0,1.0,87,0.00,OVC,OVC,0.02,WeatherDisplay:10.34,2013-10-30 22:09:00,
2013-10-30 16:14:00,39.0,35.5,29.74,NNW,329,0.0,0.0,87,0.00,OVC,OVC,0.02,WeatherDisplay:10.34,2013-10-30 22:14:00,
2013-10-30 16:19:00,39.1,35.6,29.74,WSW,248,1.0,2.0,87,0.00,OVC,OVC,0.02,WeatherDisplay:10.34,2013-10-30 22:19:00,
2013-10-30 16:24:00,39.0,35.5,29.74,WSW,248,0.0,1.0,87,0.00,BKN,BKN,0.02,WeatherDisplay:10.34,2013-10-30 22:24:00,
2013-10-30 16:29:00,39.0,35.5,29.74,NW,304,0.0,0.0,87,0.00,OVC,OVC,0.02,WeatherDisplay:10.34,2013-10-30 22:29:00,
2013-10-30 16:34:00,38.9,35.4,29.74,NW,304,0.0,0.0,87,0.00,BKN,BKN,0.02,WeatherDisplay:10.34,2013-10-30 22:34:00,
2013-10-30 16:39:00,38.9,35.1,29.74,West,262,0.0,0.0,86,0.00,OVC,OVC,0.02,WeatherDisplay:10.34,2013-10-30 22:39:00,
2013-10-30 16:44:00,39.0,35.5,29.74,SW,218,3.0,3.0,87,0.00,OVC,OVC,0.02,WeatherDisplay:10.34,2013-10-30 22:44:00,
2013-10-30 16:49:00,39.0,35.2,29.74,WSW,246,0.0,1.0,86,0.00,OVC,OVC,0.02,WeatherDisplay:10.34,2013-10-30 22:49:00,
2013-10-30 16:54:00,38.9,35.1,29.74,WSW,245,0.0,0.0,86,0.00,OVC,OVC,0.02,WeatherDisplay:10.34,2013-10-30 22:54:00,
2013-10-30 16:59:00,39.0,35.2,29.74,West,269,0.0,2.0,86,0.00,SCT,SCT,0.02,WeatherDisplay:10.34,2013-10-30 22:59:00,
2013-10-30 17:04:00,39.1,35.3,29.74,WNW,288,0.0,2.0,86,0.00,SCT,SCT,0.02,WeatherDisplay:10.34,2013-10-30 23:04:00,
2013-10-30 17:09:00,39.1,35.3,29.74,West,270,0.0,1.0,86,0.00,FEW,FEW,0.02,WeatherDisplay:10.34,2013-10-30 23:09:00,
2013-10-30 17:14:00,39.2,35.1,29.75,West,270,0.0,2.0,85,0.00,CLR,CLR,0.02,WeatherDisplay:10.34,2013-10-30 23:14:00,
2013-10-30 17:19:00,39.3,35.2,29.75,West,274,0.0,0.0,85,0.00,FEW,FEW,0.02,WeatherDisplay:10.34,2013-10-30 23:19:00,
2013-10-30 17:24:00,39.2,35.1,29.75,West,273,0.0,0.0,85,0.00,FEW,FEW,0.02,WeatherDisplay:10.34,2013-10-30 23:24:00,
2013-10-30 17:29:00,39.3,34.9,29.75,West,274,0.0,0.0,84,0.00,SCT,SCT,0.02,WeatherDisplay:10.34,2013-10-30 23:29:00,
2013-10-30 17:34:00,39.1,34.7,29.75,West,273,0.0,1.0,84,0.00,SCT,SCT,0.02,WeatherDisplay:10.34,2013-10-30 23:34:00,
2013-10-30 17:39:00,39.1,34.7,29.75,West,273,0.0,0.0,84,0.00,SCT,SCT,0.02,WeatherDisplay:10.34,2013-10-30 23:39:00,
2013-10-30 17:44:00,39.1,34.4,29.75,West,274,0.0,0.0,83,0.00,OVC,OVC,0.02,WeatherDisplay:10.34,2013-10-30 23:44:00,
2013-10-30 17:49:00,38.9,34.2,29.75,West,274,0.0,0.0,83,0.00,OVC,OVC,0.02,WeatherDisplay:10.34,2013-10-30 23:49:00,
2013-10-30 17:54:00,38.8,34.1,29.75,West,273,0.0,0.0,83,0.00,OVC,OVC,0.02,WeatherDisplay:10.34,2013-10-30 23:54:00,
2013-10-30 17:59:00,38.6,33.9,29.75,West,273,0.0,0.0,83,0.00,OVC,OVC,0.02,WeatherDisplay:10.34,2013-10-30 23:59:00,
2013-10-30 18:04:00,38.3,33.6,29.75,West,274,0.0,0.0,83,0.00,OVC,OVC,0.02,WeatherDisplay:10.34,2013-10-31 00:04:00,
2013-10-30 18:09:00,38.0,33.3,29.75,West,274,0.0,0.0,83,0.00,OVC,OVC,0.02,WeatherDisplay:10.34,2013-10-31 00:09:00,
2013-10-30 18:14:00,37.8,33.4,29.75,West,273,0.0,0.0,84,0.00,OVC,OVC,0.02,WeatherDisplay:10.34,2013-10-31 00:14:00,
2013-10-30 18:19:00,37.6,33.2,29.75,West,274,0.0,0.0,84,0.00,OVC,OVC,0.02,WeatherDisplay:10.34,2013-10-31 00:19:00,
2013-10-30 18:24:00,37.3,32.9,29.75,West,274,0.0,0.0,84,0.00,OVC,OVC,0.02,WeatherDisplay:10.34,2013-10-31 00:24:00,
2013-10-30 18:29:00,37.0,32.6,29.75,West,274,0.0,0.0,84,0.00,OVC,OVC,0.02,WeatherDisplay:10.34,2013-10-31 00:29:00,
2013-10-30 18:34:00,36.6,32.2,29.75,West,274,0.0,0.0,84,0.00,OVC,OVC,0.02,WeatherDisplay:10.34,2013-10-31 00:34:00,
2013-10-30 18:39:00,36.3,31.9,29.75,West,274,0.0,0.0,84,0.00,OVC,OVC,0.02,WeatherDisplay:10.34,2013-10-31 00:39:00,
2013-10-30 18:44:00,36.1,31.7,29.75,West,273,0.0,0.0,84,0.00,OVC,OVC,0.02,WeatherDisplay:10.34,2013-10-31 00:44:00,
2013-10-30 18:49:00,35.8,31.7,29.75,West,274,0.0,0.0,85,0.00,OVC,OVC,0.02,WeatherDisplay:10.34,2013-10-31 00:49:00,
2013-10-30 18:54:00,35.5,31.4,29.75,West,273,0.0,0.0,85,0.00,OVC,OVC,0.02,WeatherDisplay:10.34,2013-10-31 00:54:00,
2013-10-30 18:59:00,35.2,31.1,29.75,West,273,0.0,0.0,85,0.00,OVC,OVC,0.02,WeatherDisplay:10.34,2013-10-31 00:59:00,
2013-10-30 19:04:00,34.8,30.8,29.75,West,274,0.0,0.0,85,0.00,CLR,CLR,0.02,WeatherDisplay:10.34,2013-10-31 01:04:00,
2013-10-30 19:09:00,34.4,30.4,29.75,West,274,0.0,0.0,85,0.00,CLR,CLR,0.02,WeatherDisplay:10.34,2013-10-31 01:09:00,
2013-10-30 19:14:00,33.9,30.2,29.76,SW,227,0.0,1.0,86,0.00,CLR,CLR,0.02,WeatherDisplay:10.34,2013-10-31 01:14:00,
2013-10-30 19:19:00,33.6,29.9,29.76,SW,227,0.0,0.0,86,0.00,CLR,CLR,0.02,WeatherDisplay:10.34,2013-10-31 01:19:00,
2013-10-30 19:24:00,33.3,29.8,29.76,SW,227,0.0,0.0,87,0.00,CLR,CLR,0.02,WeatherDisplay:10.34,2013-10-31 01:24:00,
2013-10-30 19:29:00,33.1,29.7,29.76,SW,227,0.0,0.0,87,0.00,CLR,CLR,0.02,WeatherDisplay:10.34,2013-10-31 01:29:00,
2013-10-30 19:34:00,32.9,29.5,29.76,SW,227,0.0,0.0,87,0.00,CLR,CLR,0.02,WeatherDisplay:10.34,2013-10-31 01:34:00,
2013-10-30 19:39:00,32.7,29.3,29.76,SW,227,0.0,0.0,87,0.00,CLR,CLR,0.02,WeatherDisplay:10.34,2013-10-31 01:39:00,
2013-10-30 19:44:00,32.4,29.0,29.76,SW,227,0.0,0.0,87,0.00,CLR,CLR,0.02,WeatherDisplay:10.34,2013-10-31 01:44:00,
2013-10-30 19:49:00,32.0,28.8,29.76,SW,228,0.0,0.0,88,0.00,CLR,CLR,0.02,WeatherDisplay:10.34,2013-10-31 01:49:00,
2013-10-30 19:54:00,31.9,28.8,29.77,SW,227,0.0,0.0,88,0.00,CLR,CLR,0.02,WeatherDisplay:10.34,2013-10-31 01:54:00,
2013-10-30 19:59:00,31.7,28.6,29.77,SW,227,0.0,0.0,88,0.00,CLR,CLR,0.02,WeatherDisplay:10.34,2013-10-31 01:59:00,
2013-10-30 20:04:00,31.6,28.5,29.77,SW,228,0.0,0.0,88,0.00,CLR,CLR,0.02,WeatherDisplay:10.34,2013-10-31 02:04:00,
2013-10-30 20:09:00,31.4,28.3,29.77,SW,223,3.0,3.0,88,0.00,CLR,CLR,0.02,WeatherDisplay:10.34,2013-10-31 02:09:00,
2013-10-30 20:15:00,31.2,28.3,29.77,SW,223,0.0,0.0,89,0.00,CLR,CLR,0.02,WeatherDisplay:10.34,2013-10-31 02:15:00,
2013-10-30 20:20:00,31.1,28.2,29.77,SW,224,0.0,0.0,89,0.00,CLR,CLR,0.02,WeatherDisplay:10.34,2013-10-31 02:20:00,
2013-10-30 20:25:00,30.9,28.0,29.77,SW,224,0.0,0.0,89,0.00,CLR,CLR,0.02,WeatherDisplay:10.34,2013-10-31 02:25:00,
2013-10-30 20:30:00,30.8,27.9,29.77,SW,224,0.0,0.0,89,0.00,CLR,CLR,0.02,WeatherDisplay:10.34,2013-10-31 02:30:00,
2013-10-30 20:35:00,30.7,28.1,29.77,SW,223,1.0,2.0,90,0.00,CLR,CLR,0.02,WeatherDisplay:10.34,2013-10-31 02:35:00,
2013-10-30 20:40:00,30.6,27.7,29.77,SW,224,0.0,0.0,89,0.00,CLR,CLR,0.02,WeatherDisplay:10.34,2013-10-31 02:40:00,
2013-10-30 20:45:00,30.4,27.8,29.77,SW,225,0.0,0.0,90,0.00,CLR,CLR,0.02,WeatherDisplay:10.34,2013-10-31 02:45:00,
2013-10-30 20:50:00,30.2,27.6,29.77,SW,224,0.0,0.0,90,0.00,CLR,CLR,0.02,WeatherDisplay:10.34,2013-10-31 02:50:00,
2013-10-30 20:55:00,30.0,27.4,29.77,SW,225,0.0,0.0,90,0.00,CLR,CLR,0.02,WeatherDisplay:10.34,2013-10-31 02:55:00,
2013-10-30 21:00:00,29.8,27.2,29.77,SW,225,0.0,0.0,90,0.00,CLR,CLR,0.02,WeatherDisplay:10.34,2013-10-31 03:00:00,
2013-10-30 21:02:00,29.7,27.1,29.77,SW,224,0.0,0.0,90,0.00,CLR,CLR,0.02,WeatherDisplay:10.34,2013-10-31 03:02:00,
2013-10-30 21:07:00,29.6,27.0,29.77,East,84,0.0,0.0,90,0.00,CLR,CLR,0.02,WeatherDisplay:10.34,2013-10-31 03:07:00,
2013-10-30 21:12:00,29.5,26.9,29.77,ESE,112,1.0,1.0,90,0.00,CLR,CLR,0.02,WeatherDisplay:10.34,2013-10-31 03:12:00,
2013-10-30 21:17:00,29.5,26.9,29.77,SE,145,0.0,0.0,90,0.00,CLR,CLR,0.02,WeatherDisplay:10.34,2013-10-31 03:17:00,
2013-10-30 21:22:00,29.4,26.8,29.77,SE,145,0.0,0.0,90,0.00,CLR,CLR,0.02,WeatherDisplay:10.34,2013-10-31 03:22:00,
2013-10-30 21:27:00,29.5,27.2,29.77,SE,145,0.0,1.0,91,0.00,CLR,CLR,0.02,WeatherDisplay:10.34,2013-10-31 03:27:00,
2013-10-30 21:32:00,29.4,27.1,29.77,SE,145,0.0,0.0,91,0.00,CLR,CLR,0.02,WeatherDisplay:10.34,2013-10-31 03:32:00,
2013-10-30 21:37:00,29.4,27.1,29.77,SW,226,1.0,1.0,91,0.00,CLR,CLR,0.02,WeatherDisplay:10.34,2013-10-31 03:37:00,
2013-10-30 21:42:00,29.4,27.1,29.77,SW,227,0.0,0.0,91,0.00,CLR,CLR,0.02,WeatherDisplay:10.34,2013-10-31 03:42:00,
2013-10-30 21:47:00,29.4,27.1,29.77,SW,227,0.0,0.0,91,0.00,CLR,CLR,0.02,WeatherDisplay:10.34,2013-10-31 03:47:00,
2013-10-30 21:52:00,29.5,27.2,29.77,SW,232,2.0,2.0,91,0.00,CLR,CLR,0.02,WeatherDisplay:10.34,2013-10-31 03:52:00,
2013-10-30 21:57:00,29.6,27.3,29.77,SW,232,1.0,1.0,91,0.00,CLR,CLR,0.02,WeatherDisplay:10.34,2013-10-31 03:57:00,
2013-10-30 22:01:00,29.8,27.8,29.77,WSW,254,0.0,1.0,92,0.00,CLR,CLR,0.02,WeatherDisplay:10.34,2013-10-31 04:01:00,
2013-10-30 22:03:00,29.8,27.5,29.77,WSW,255,0.0,0.0,91,0.00,CLR,CLR,0.02,WeatherDisplay:10.34,2013-10-31 04:03:00,
2013-10-30 22:04:00,29.9,27.6,29.77,WSW,255,0.0,0.0,91,0.00,CLR,CLR,0.02,WeatherDisplay:10.34,2013-10-31 04:04:00,
2013-10-30 22:05:00,29.8,27.5,29.77,WSW,255,0.0,0.0,91,0.00,CLR,CLR,0.02,WeatherDisplay:10.34,2013-10-31 04:05:00,
2013-10-30 22:08:00,29.7,27.4,29.77,WSW,255,0.0,0.0,91,0.00,CLR,CLR,0.02,WeatherDisplay:10.34,2013-10-31 04:08:00,
2013-10-30 22:13:00,29.7,27.4,29.77,WSW,255,0.0,0.0,91,0.00,CLR,CLR,0.02,WeatherDisplay:10.34,2013-10-31 04:13:00,
2013-10-30 22:18:00,29.6,27.6,29.77,WSW,255,0.0,0.0,92,0.00,CLR,CLR,0.02,WeatherDisplay:10.34,2013-10-31 04:18:00,
2013-10-30 22:23:00,29.5,27.5,29.77,WSW,254,0.0,0.0,92,0.00,CLR,CLR,0.02,WeatherDisplay:10.34,2013-10-31 04:23:00,
2013-10-30 22:28:00,29.4,27.4,29.77,WSW,255,0.0,0.0,92,0.00,CLR,CLR,0.02,WeatherDisplay:10.34,2013-10-31 04:28:00,
2013-10-30 22:33:00,29.3,27.0,29.77,WSW,255,0.0,0.0,91,0.00,CLR,CLR,0.02,WeatherDisplay:10.34,2013-10-31 04:33:00,
2013-10-30 22:38:00,29.1,26.8,29.77,WSW,255,0.0,0.0,91,0.00,CLR,CLR,0.02,WeatherDisplay:10.34,2013-10-31 04:38:00,
2013-10-30 22:43:00,29.0,26.7,29.77,WSW,255,0.0,0.0,91,0.00,CLR,CLR,0.02,WeatherDisplay:10.34,2013-10-31 04:43:00,
2013-10-30 22:48:00,28.8,26.5,29.77,WSW,255,0.0,0.0,91,0.00,CLR,CLR,0.02,WeatherDisplay:10.34,2013-10-31 04:48:00,
2013-10-30 22:53:00,28.6,26.3,29.77,WSW,255,0.0,0.0,91,0.00,CLR,CLR,0.02,WeatherDisplay:10.34,2013-10-31 04:53:00,
2013-10-30 22:58:00,28.3,26.0,29.77,WSW,254,0.0,1.0,91,0.00,CLR,CLR,0.02,WeatherDisplay:10.34,2013-10-31 04:58:00,
2013-10-30 23:03:00,27.9,25.6,29.77,WSW,255,0.0,0.0,91,0.00,CLR,CLR,0.02,WeatherDisplay:10.34,2013-10-31 05:03:00,
2013-10-30 23:08:00,27.8,25.5,29.77,WSW,255,1.0,1.0,91,0.00,CLR,CLR,0.02,WeatherDisplay:10.34,2013-10-31 05:08:00,
2013-10-30 23:13:00,27.7,25.7,29.77,WSW,255,0.0,0.0,92,0.00,CLR,CLR,0.02,WeatherDisplay:10.34,2013-10-31 05:13:00,
2013-10-30 23:18:00,27.6,25.3,29.77,WSW,255,0.0,0.0,91,0.00,CLR,CLR,0.02,WeatherDisplay:10.34,2013-10-31 05:18:00,
2013-10-30 23:23:00,27.6,25.6,29.77,WSW,254,0.0,0.0,92,0.00,CLR,CLR,0.02,WeatherDisplay:10.34,2013-10-31 05:23:00,
2013-10-30 23:28:00,27.6,25.6,29.77,WSW,254,0.0,0.0,92,0.00,CLR,CLR,0.02,WeatherDisplay:10.34,2013-10-31 05:28:00,
2013-10-30 23:33:00,27.7,25.7,29.77,WSW,255,0.0,0.0,92,0.00,CLR,CLR,0.02,WeatherDisplay:10.34,2013-10-31 05:33:00,
2013-10-30 23:38:00,27.8,25.8,29.77,WSW,255,0.0,0.0,92,0.00,CLR,CLR,0.02,WeatherDisplay:10.34,2013-10-31 05:38:00,
2013-10-30 23:43:00,27.8,25.8,29.77,WSW,254,0.0,0.0,92,0.00,CLR,CLR,0.02,WeatherDisplay:10.34,2013-10-31 05:43:00,
2013-10-30 23:48:00,27.8,25.8,29.77,WSW,254,0.0,0.0,92,0.00,CLR,CLR,0.02,WeatherDisplay:10.34,2013-10-31 05:48:00,
2013-10-30 23:53:00,27.8,25.8,29.76,WSW,254,0.0,0.0,92,0.00,CLR,CLR,0.02,WeatherDisplay:10.34,2013-10-31 05:53:00,
2013-10-30 23:58:00,27.6,25.6,29.76,WSW,254,1.0,3.0,92,0.00,CLR,CLR,0.02,WeatherDisplay:10.34,2013-10-31 05:58:00,